Flight Track Log - Related Links

Times and Time Zones

All times are in EDT time to prevent confusion due to time zone crossing. See the GJS3710 flight status page for this flight to view local times or setup timezone preferences in your user account.

Time Position Orientation Groundspeed Altitude Reporting Facility
EDT Latitude Longitude Course Direction KTS MPH feet Rate Location/Type
Sun 03:02:32 PM 39.9167 -104.6833 108° East 181 208 6,400  Level Denver TRACON
Sun 03:03:26 PM 39.9333 -104.6167 72° East 233 268 8,000 1,403 Climbing Denver TRACON
Sun 03:05:00 PM 39.7718 -104.0830 101° East  Level FlightAware Approximate
Sun 03:05:06 PM 39.8550 -104.4978 131° Southeast 288 331 10,000  Level Denver Center
Sun 03:06:00 PM 39.7667 -103.9354 90° East  Level FlightAware Approximate
Sun 03:06:07 PM 39.8192 -104.4117 118° Southeast 316 364 11,100  Level Denver Center
Sun 03:07:00 PM 39.7435 -103.7906 108° East  Level FlightAware Approximate
Sun 03:07:10 PM 39.8006 -104.2561 99° East 361 415 13,300  Level Denver Center
Sun 03:08:12 PM 39.7836 -104.1122 99° East 376 433 15,300 1,790 Climbing Denver Center
Sun 03:09:14 PM 39.7811 -103.9733 91° East 387 445 17,000 1,694 Climbing Denver Center
Sun 03:10:16 PM 39.7761 -103.8203 92° East 397 457 18,800 1,548 Climbing Denver Center
Sun 03:11:18 PM 39.7728 -103.6800 92° East 389 448 20,200 1,403 Climbing Denver Center
Sun 03:12:20 PM 39.7686 -103.5244 92° East 421 484 21,700 1,548 Climbing Denver Center
Sun 03:13:22 PM 39.7639 -103.3686 92° East 428 493 23,400 1,403 Climbing Denver Center
Sun 03:14:24 PM 39.7592 -103.2103 92° East 434 499 24,600 1,210 Climbing Denver Center
Sun 03:15:26 PM 39.7517 -103.0194 93° East 448 516 25,900 1,210 Climbing Denver Center
Sun 03:16:28 PM 39.7456 -102.8558 93° East 451 519 27,100 968 Climbing Denver Center
Sun 03:17:30 PM 39.7403 -102.6853 92° East 460 529 27,900 726 Climbing Denver Center
Sun 03:18:32 PM 39.7353 -102.5514 93° East 464 534 28,600 968 Climbing Denver Center
Sun 03:19:34 PM 39.7267 -102.3367 93° East 466 536 29,900 968 Climbing Denver Center
Sun 03:20:36 PM 39.7183 -102.1744 94° East 470 541 30,600 677 Climbing Denver Center
Sun 03:21:38 PM 39.7111 -101.9828 93° East 477 549 31,300 677 Climbing Denver Center
Sun 03:22:40 PM 39.7033 -101.8183 93° East 479 551 32,000 1,113 Climbing Denver Center
Sun 03:23:42 PM 39.6953 -101.6306 93° East 467 537 33,600 1,210 Climbing Denver Center
Sun 03:24:44 PM 39.6872 -101.4728 94° East 460 529 34,500 774 Climbing Denver Center
Sun 03:25:46 PM 39.6786 -101.2908 93° East 456 525 35,200 677 Climbing Denver Center
Sun 03:26:48 PM 39.6706 -101.1336 94° East 457 526 35,900 823 Climbing Denver Center
Sun 03:27:50 PM 39.6614 -100.9539 94° East 451 519 36,900 532 Climbing Denver Center
Sun 03:28:52 PM 39.6522 -100.8006 94° East 448 516 37,000 48 Climbing Denver Center
Sun 03:29:54 PM 39.6422 -100.6161 94° East 458 527 37,000  Level Denver Center
Sun 03:30:56 PM 39.6333 -100.4561 94° East 464 534 37,000  Level Denver Center
Sun 03:32:10 PM 39.6211 -100.2456 94° East 460 529 37,000  Level Denver Center
Sun 03:33:12 PM 39.6117 -100.0914 94° East 451 519 37,000  Level Denver Center
Sun 03:34:14 PM 39.6011 -99.9231 95° East 455 524 37,000  Level Denver Center
Sun 03:35:16 PM 39.5917 -99.7617 94° East 451 519 37,000  Level Denver Center
Sun 03:36:30 PM 39.5811 -99.5997 95° East 451 519 37,000  Level Denver Center
Sun 03:37:33 PM 39.5656 -99.3719 95° East 454 522 37,000  Level Denver Center
Sun 03:38:47 PM 39.5531 -99.1758 95° East 456 525 37,000  Level Denver Center
Sun 03:39:49 PM 39.5417 -99.0119 95° East 456 525 37,000  Level Denver Center
Sun 03:40:51 PM 39.5300 -98.8486 95° East 457 526 37,000  Level Denver Center
Sun 03:41:53 PM 39.5175 -98.6858 96° East 457 526 37,000  Level Denver Center
Sun 03:42:55 PM 39.5061 -98.5228 95° East 457 526 37,000  Level Denver Center
Sun 03:43:57 PM 39.4922 -98.3294 95° East 452 520 37,000  Level Denver Center
Sun 03:44:59 PM 39.4800 -98.1681 96° East 452 520 37,000  Level Denver Center
Sun 03:46:03 PM 39.4664 -97.9981 96° East 451 519 37,000  Level Kansas City Center
Sun 03:47:05 PM 39.4553 -97.8439 95° East 453 521 37,000  Level Kansas City Center
Sun 03:48:07 PM 39.4389 -97.6503 96° East 451 519 37,000  Level Kansas City Center
Sun 03:49:09 PM 39.4275 -97.5078 96° East 450 518 37,000  Level Kansas City Center
Sun 03:50:11 PM 39.4131 -97.3294 96° East 448 516 37,000  Level Kansas City Center
Sun 03:51:13 PM 39.4003 -97.1747 96° East 451 519 37,000  Level Kansas City Center
Sun 03:52:15 PM 39.3825 -96.9961 97° East 451 519 37,000  Level Kansas City Center
Sun 03:53:17 PM 39.3706 -96.8406 96° East 453 521 37,000  Level Kansas City Center
Sun 03:54:19 PM 39.3550 -96.6600 96° East 454 522 37,000  Level Kansas City Center
Sun 03:55:21 PM 39.3397 -96.5058 97° East 453 521 37,000  Level Kansas City Center
Sun 03:56:23 PM 39.3228 -96.3264 97° East 452 520 37,000  Level Kansas City Center
Sun 03:57:25 PM 39.3106 -96.1806 96° East 453 521 37,000  Level Kansas City Center
Sun 03:58:28 PM 39.2903 -95.9911 98° East 453 521 37,000  Level Kansas City Center
Sun 03:59:30 PM 39.2756 -95.8378 97° East 450 518 37,000  Level Kansas City Center
Sun 04:00:32 PM 39.2611 -95.6839 97° East 452 520 37,000  Level Kansas City Center
Sun 04:01:34 PM 39.2425 -95.5036 98° East 454 522 37,000  Level Kansas City Center
Sun 04:02:36 PM 39.2256 -95.3342 97° East 452 520 37,000  Level Kansas City Center
Sun 04:03:38 PM 39.2067 -95.1619 98° East 453 521 37,000  Level Kansas City Center
Sun 04:04:40 PM 39.1906 -95.0036 97° East 452 520 37,000  Level Kansas City Center
Sun 04:05:42 PM 39.1739 -94.8506 98° East 452 520 37,000  Level Kansas City Center
Sun 04:06:44 PM 39.1556 -94.6703 97° East 454 522 37,000  Level Kansas City Center
Sun 04:07:46 PM 39.1383 -94.5181 98° East 449 517 37,000  Level Kansas City Center
Sun 04:08:48 PM 39.1192 -94.3408 98° East 448 516 37,000  Level Kansas City Center
Sun 04:09:50 PM 39.1014 -94.1869 98° East 452 520 37,000  Level Kansas City Center
Sun 04:10:52 PM 39.0789 -94.0094 99° East 452 520 37,000  Level Kansas City Center
Sun 04:11:54 PM 39.0603 -93.8569 99° East 450 518 37,000  Level Kansas City Center
Sun 04:12:56 PM 39.0378 -93.6789 99° East 452 520 37,000  Level Kansas City Center
Sun 04:13:58 PM 39.0175 -93.5261 100° East 453 521 37,000 -677 Level Kansas City Center
Sun 04:15:00 PM 38.9961 -93.3519 99° East 448 516 35,600 -1,548 Descending Kansas City Center
Sun 04:16:02 PM 38.9742 -93.1892 100° East 453 521 33,800 -1,742 Descending Kansas City Center
Sun 04:17:04 PM 38.9539 -93.0211 99° East 462 532 32,000 -1,742 Descending Kansas City Center
Sun 04:18:06 PM 38.9314 -92.8558 100° East 468 539 30,200 -1,694 Descending Kansas City Center
Sun 04:19:08 PM 38.9083 -92.6939 100° East 463 533 28,500 -1,597 Descending Kansas City Center
Sun 04:20:10 PM 38.8869 -92.5331 100° East 459 528 26,900 -1,500 Descending Kansas City Center
Sun 04:21:12 PM 38.8653 -92.3764 100° East 451 519 25,400 -1,403 Descending Kansas City Center
Sun 04:22:14 PM 38.8439 -92.2214 100° East 442 509 24,000 -1,500 Descending Kansas City Center
Sun 04:23:16 PM 38.8172 -92.0417 101° East 429 494 22,300 -1,500 Descending Kansas City Center
Sun 04:24:18 PM 38.7958 -91.8939 100° East 422 486 20,900 -1,355 Descending Kansas City Center
Sun 04:25:20 PM 38.7747 -91.7481 100° East 417 480 19,500 -1,258 Descending Kansas City Center
Sun 04:26:22 PM 38.7558 -91.6222 101° East 410 472 18,300 -1,452 Descending Kansas City Center
Sun 04:27:24 PM 38.7314 -91.4547 101° East 403 464 16,500 -1,548 Descending Kansas City Center
Sun 04:28:26 PM 38.7114 -91.3167 100° East 398 458 15,100 -1,355 Descending Kansas City Center
Sun 04:29:28 PM 38.6936 -91.1842 100° East 386 444 13,700 -1,355 Descending Kansas City Center
Sun 04:30:30 PM 38.6983 -91.0622 87° East 351 404 12,300 -1,355 Descending Kansas City Center
Sun 04:31:32 PM 38.7008 -90.9422 88° East 339 390 10,900 -968 Descending Kansas City Center
Sun 04:32:34 PM 38.7042 -90.7942 88° East 346 398 10,300 -532 Descending Kansas City Center
Sun 04:33:36 PM 38.7078 -90.6758 88° East 338 389 9,800 -677 Descending Kansas City Center
Sun 04:34:38 PM 38.7128 -90.5703 86° East 303 349 8,900 -1,065 Descending Kansas City Center
Sun 04:35:40 PM 38.6922 -90.4758 106° East 287 330 7,600 -1,403 Descending Kansas City Center
Sun 04:36:42 PM 38.6553 -90.3922 119° Southeast 284 327 6,000 -1,694 Descending Kansas City Center
Sun 04:37:44 PM 38.6117 -90.2897 119° Southeast 282 325 4,100 -960 Descending Kansas City Center
Sun 04:38:47 PM 38.5842 -90.2136 115° Southeast 265 305 4,000 -48 Descending Kansas City Center
Sun 04:39:49 PM 38.6281 -90.1875 25° Northeast 227 261 4,000 -532 Level Kansas City Center
Sun 04:40:51 PM 38.6728 -90.2211 330° Northwest 200 230 2,900 -1,065 Descending Kansas City Center
Sun 04:41:53 PM 38.7081 -90.2772 309° West 181 208 1,800 -1,065 Descending Kansas City Center

Login

Don't have an account? Register now (free) for customized features, flight alerts, and more!